createdAt,value
2019-03-17T00:01:57.695Z,2.20
2019-03-17T00:04:31.316Z,2.30
2019-03-17T00:06:57.351Z,2.37
2019-03-17T00:09:26.085Z,1.50
2019-03-17T00:11:54.872Z,1.70
2019-03-17T00:14:23.746Z,2.00
2019-03-17T00:16:52.495Z,1.20
2019-03-17T00:19:21.319Z,1.07
2019-03-17T00:21:50.059Z,1.20
2019-03-17T00:24:18.797Z,1.55
2019-03-17T00:26:47.613Z,1.32
2019-03-17T00:29:16.327Z,1.80
2019-03-17T00:31:45.062Z,1.50
2019-03-17T00:34:13.794Z,1.50
2019-03-17T00:36:42.659Z,1.50
2019-03-17T00:39:11.384Z,1.60
2019-03-17T00:41:40.119Z,1.52
2019-03-17T00:44:08.844Z,1.50
2019-03-17T00:46:37.581Z,1.57
2019-03-17T00:49:06.378Z,1.42
2019-03-17T00:51:35.172Z,1.40
2019-03-17T00:54:03.887Z,1.60
2019-03-17T00:56:32.625Z,1.42
2019-03-17T00:59:01.334Z,1.32
2019-03-17T01:01:30.075Z,1.35
2019-03-17T01:03:58.830Z,1.90
2019-03-17T01:06:27.634Z,1.60
2019-03-17T01:08:56.342Z,1.37
2019-03-17T01:11:25.070Z,1.20
2019-03-17T01:13:53.794Z,1.67
2019-03-17T01:16:22.538Z,1.60
2019-03-17T01:18:51.250Z,1.30
2019-03-17T01:21:20.074Z,1.22
2019-03-17T01:23:48.786Z,1.25
2019-03-17T01:26:17.508Z,1.70
2019-03-17T01:28:46.233Z,1.20
2019-03-17T01:31:14.951Z,1.27
2019-03-17T01:33:43.702Z,1.12
2019-03-17T01:36:12.425Z,1.02
2019-03-17T01:38:41.147Z,1.42
2019-03-17T01:41:09.873Z,1.57
2019-03-17T01:43:38.603Z,1.40
2019-03-17T01:46:07.313Z,1.22
2019-03-17T01:48:36.055Z,1.20
2019-03-17T01:51:04.765Z,1.10
2019-03-17T01:53:33.481Z,1.27
2019-03-17T01:56:02.262Z,1.45
2019-03-17T01:58:30.978Z,1.15
2019-03-17T02:00:59.691Z,1.02
2019-03-17T02:03:28.510Z,1.45
2019-03-17T02:05:57.234Z,1.05
2019-03-17T02:08:25.946Z,1.15
2019-03-17T02:10:54.666Z,1.27
2019-03-17T02:13:23.383Z,1.00
2019-03-17T02:15:52.111Z,1.00
2019-03-17T02:18:20.811Z,0.90
2019-03-17T02:20:49.534Z,1.05
2019-03-17T02:23:18.313Z,1.00
2019-03-17T02:25:47.051Z,1.02
2019-03-17T02:28:15.757Z,1.02
2019-03-17T02:30:44.484Z,1.07
2019-03-17T02:33:13.278Z,1.00
2019-03-17T02:35:42.007Z,1.10
2019-03-17T02:38:10.785Z,1.02
2019-03-17T02:40:39.521Z,1.15
2019-03-17T02:43:08.238Z,0.98
2019-03-17T02:45:36.983Z,1.00
2019-03-17T02:48:05.708Z,1.00
2019-03-17T02:50:34.438Z,0.90
2019-03-17T02:53:03.243Z,0.93
2019-03-17T02:55:31.956Z,1.00
2019-03-17T02:58:00.773Z,0.90
2019-03-17T03:00:29.552Z,0.90
2019-03-17T03:02:58.354Z,1.10
2019-03-17T03:05:27.147Z,1.20
2019-03-17T03:07:55.949Z,1.12
2019-03-17T03:10:24.671Z,0.90
2019-03-17T03:12:53.387Z,1.10
2019-03-17T03:15:22.108Z,0.88
2019-03-17T03:17:50.886Z,1.00
2019-03-17T03:20:19.681Z,1.00
2019-03-17T03:22:48.400Z,0.85
2019-03-17T03:25:17.208Z,0.80
2019-03-17T03:27:45.999Z,0.80
2019-03-17T03:30:14.801Z,1.02
2019-03-17T03:32:43.527Z,1.10
2019-03-17T03:35:12.363Z,0.85
2019-03-17T03:37:41.202Z,1.10
2019-03-17T03:40:09.940Z,1.05
2019-03-17T03:42:38.736Z,1.10
2019-03-17T03:45:08.063Z,1.07
2019-03-17T03:47:36.852Z,1.50
2019-03-17T03:50:05.951Z,1.02
2019-03-17T03:52:34.691Z,0.78
2019-03-17T03:55:03.466Z,0.85
2019-03-17T03:57:32.274Z,0.80
2019-03-17T04:00:01.008Z,0.80
2019-03-17T04:02:29.739Z,0.60
2019-03-17T04:04:58.548Z,0.80
2019-03-17T04:07:27.264Z,0.70
2019-03-17T04:09:55.987Z,0.75
2019-03-17T04:12:24.701Z,0.70
2019-03-17T04:14:53.432Z,0.70
2019-03-17T04:17:22.172Z,0.80
2019-03-17T04:19:50.943Z,0.90
2019-03-17T04:22:19.733Z,0.78
2019-03-17T04:24:48.515Z,0.80
2019-03-17T04:27:17.322Z,0.65
2019-03-17T04:29:46.038Z,0.60
2019-03-17T04:32:14.750Z,0.70
2019-03-17T04:34:43.491Z,0.60
2019-03-17T04:37:12.238Z,0.88
2019-03-17T04:39:40.952Z,0.70
2019-03-17T04:42:28.963Z,0.60
2019-03-17T04:44:57.695Z,0.80
2019-03-17T04:47:26.415Z,0.68
2019-03-17T04:49:55.193Z,0.57
2019-03-17T04:52:23.911Z,0.50
2019-03-17T04:54:52.711Z,0.80
2019-03-17T04:57:21.466Z,0.78
2019-03-17T04:59:50.196Z,0.70
2019-03-17T05:02:18.899Z,0.80
2019-03-17T05:04:47.642Z,0.85
2019-03-17T05:07:16.343Z,0.60
2019-03-17T05:09:45.059Z,0.75
2019-03-17T05:12:13.785Z,0.60
2019-03-17T05:14:42.501Z,0.85
2019-03-17T05:17:11.333Z,0.80
2019-03-17T05:19:40.044Z,0.82
2019-03-17T05:22:08.772Z,0.68
2019-03-17T05:24:37.482Z,0.80
2019-03-17T05:27:06.202Z,0.75
2019-03-17T05:29:34.908Z,0.65
2019-03-17T05:32:03.632Z,0.75
2019-03-17T05:34:32.354Z,0.78
2019-03-17T05:37:06.545Z,0.60
2019-03-17T05:39:31.525Z,0.88
2019-03-17T05:42:00.304Z,1.00
2019-03-17T05:44:29.013Z,0.70
2019-03-17T05:46:57.735Z,1.00
2019-03-17T05:49:26.540Z,0.62
2019-03-17T05:51:55.294Z,0.80
2019-03-17T05:54:24.023Z,0.80
2019-03-17T05:56:52.810Z,0.90
2019-03-17T05:59:21.534Z,0.70
2019-03-17T06:01:50.275Z,0.75
2019-03-17T06:04:18.992Z,0.78
2019-03-17T06:06:47.722Z,0.65
2019-03-17T06:09:16.442Z,0.78
2019-03-17T06:11:45.182Z,0.70
2019-03-17T06:14:13.890Z,0.82
2019-03-17T06:16:42.619Z,0.65
2019-03-17T06:19:11.340Z,0.72
2019-03-17T06:21:40.074Z,0.88
2019-03-17T06:24:08.779Z,0.80
2019-03-17T06:26:37.489Z,0.60
2019-03-17T06:29:06.211Z,0.70
2019-03-17T06:31:34.927Z,0.75
2019-03-17T06:34:03.649Z,1.10
2019-03-17T06:36:32.364Z,1.20
2019-03-17T06:39:01.092Z,1.40
2019-03-17T06:41:29.878Z,1.00
2019-03-17T06:43:58.614Z,1.10
2019-03-17T06:46:27.350Z,0.90
2019-03-17T06:48:56.062Z,0.90
2019-03-17T06:51:24.790Z,1.20
2019-03-17T06:53:56.504Z,1.50
2019-03-17T06:56:23.989Z,2.75
2019-03-17T06:58:52.723Z,2.50
2019-03-17T07:01:21.445Z,2.08
2019-03-17T07:03:50.184Z,1.95
2019-03-17T07:06:18.917Z,1.85
2019-03-17T07:08:47.717Z,1.72
2019-03-17T07:11:16.437Z,1.15
2019-03-17T07:13:45.187Z,0.95
2019-03-17T07:16:13.910Z,0.82
2019-03-17T07:18:42.621Z,0.78
2019-03-17T07:21:11.352Z,0.70
2019-03-17T07:23:40.066Z,0.90
2019-03-17T07:26:08.814Z,0.60
2019-03-17T07:28:37.613Z,1.10
2019-03-17T07:31:06.414Z,0.72
2019-03-17T07:33:35.147Z,0.80
2019-03-17T07:36:03.893Z,0.90
2019-03-17T07:38:32.620Z,0.88
2019-03-17T07:41:01.409Z,0.95
2019-03-17T07:43:30.168Z,1.00
2019-03-17T07:45:58.977Z,1.00
2019-03-17T07:48:27.705Z,0.90
2019-03-17T07:50:56.430Z,0.90
2019-03-17T07:53:25.224Z,1.10
2019-03-17T07:55:54.021Z,1.02
2019-03-17T07:58:22.766Z,1.15
2019-03-17T08:00:51.506Z,1.25
2019-03-17T08:03:20.246Z,0.90
2019-03-17T08:05:49.003Z,1.00
2019-03-17T08:08:20.354Z,1.10
2019-03-17T08:10:49.171Z,1.12
2019-03-17T08:13:17.911Z,0.80
2019-03-17T08:15:46.637Z,0.93
2019-03-17T08:18:15.357Z,0.98
2019-03-17T08:20:44.091Z,0.90
2019-03-17T08:23:12.817Z,0.82
2019-03-17T08:25:41.545Z,1.02
2019-03-17T08:28:10.266Z,1.10
2019-03-17T08:30:38.990Z,0.80
2019-03-17T08:33:07.730Z,1.02
2019-03-17T08:35:36.462Z,0.80
2019-03-17T08:38:06.525Z,1.07
2019-03-17T08:40:35.336Z,0.80
2019-03-17T08:43:04.109Z,0.82
2019-03-17T08:45:32.843Z,0.82
2019-03-17T08:48:01.634Z,1.10
2019-03-17T08:50:30.435Z,0.95
2019-03-17T08:52:59.204Z,1.05
2019-03-17T08:55:27.999Z,1.05
2019-03-17T08:57:56.841Z,1.20
2019-03-17T09:00:25.572Z,1.05
2019-03-17T09:02:54.301Z,0.90
2019-03-17T09:05:23.024Z,0.93
2019-03-17T09:07:51.759Z,1.12
2019-03-17T09:10:20.510Z,0.90
2019-03-17T09:12:50.093Z,1.05
2019-03-17T09:15:18.867Z,0.98
2019-03-17T09:17:47.585Z,0.80
2019-03-17T09:20:16.307Z,0.90
2019-03-17T09:22:45.043Z,1.00
2019-03-17T09:25:13.839Z,0.98
2019-03-17T09:27:42.671Z,0.88
2019-03-17T09:30:12.337Z,1.00
2019-03-17T09:32:41.118Z,0.80
2019-03-17T09:35:10.328Z,1.02
2019-03-17T09:37:39.136Z,0.90
2019-03-17T09:40:08.654Z,1.00
2019-03-17T09:42:37.480Z,0.82
2019-03-17T09:45:06.546Z,0.78
2019-03-17T09:47:35.295Z,0.90
2019-03-17T09:50:04.343Z,0.70
2019-03-17T09:52:33.087Z,0.72
2019-03-17T09:55:01.916Z,1.00
2019-03-17T09:57:30.713Z,0.53
2019-03-17T09:59:59.451Z,0.80
2019-03-17T10:02:28.171Z,1.00
2019-03-17T10:04:56.907Z,0.88
2019-03-17T10:07:25.622Z,0.75
2019-03-17T10:09:54.375Z,0.82
2019-03-17T10:12:23.106Z,0.80
2019-03-17T10:14:51.906Z,0.75
2019-03-17T10:17:20.708Z,0.80
2019-03-17T10:19:49.426Z,0.65
2019-03-17T10:22:18.156Z,0.70
2019-03-17T10:24:46.866Z,0.72
2019-03-17T10:27:15.620Z,0.85
2019-03-17T10:29:44.347Z,0.70
2019-03-17T10:32:13.089Z,0.90
2019-03-17T10:34:41.817Z,0.68
2019-03-17T10:37:10.529Z,0.90
2019-03-17T10:39:39.305Z,0.80
2019-03-17T10:42:08.017Z,1.15
2019-03-17T10:44:36.744Z,0.80
2019-03-17T10:47:05.502Z,0.70
2019-03-17T10:49:34.244Z,0.98
2019-03-17T10:52:03.038Z,0.98
2019-03-17T10:54:31.852Z,0.82
2019-03-17T10:57:00.642Z,0.70
2019-03-17T10:59:29.371Z,1.00
2019-03-17T11:01:58.127Z,0.90
2019-03-17T11:04:26.857Z,0.60
2019-03-17T11:06:55.710Z,1.07
2019-03-17T11:09:25.661Z,0.90
2019-03-17T11:11:54.639Z,0.98
2019-03-17T11:14:23.391Z,0.70
2019-03-17T11:16:52.226Z,0.90
2019-03-17T11:19:21.026Z,0.70
2019-03-17T11:21:49.830Z,0.90
2019-03-17T11:24:18.571Z,0.90
2019-03-17T11:26:47.312Z,0.82
2019-03-17T11:29:16.111Z,1.00
2019-03-17T11:31:44.870Z,1.20
2019-03-17T11:34:13.590Z,1.05
2019-03-17T11:36:42.330Z,1.00
2019-03-17T11:39:11.060Z,1.00
2019-03-17T11:41:39.810Z,1.00
2019-03-17T11:44:08.542Z,1.02
2019-03-17T11:46:37.271Z,1.10
2019-03-17T11:49:06.803Z,1.00
2019-03-17T11:51:35.530Z,1.35
2019-03-17T11:54:04.261Z,1.30
2019-03-17T11:56:33.000Z,1.15
2019-03-17T11:59:01.751Z,1.00
2019-03-17T12:01:30.458Z,1.10
2019-03-17T12:03:59.202Z,1.20
2019-03-17T12:06:27.962Z,1.30
2019-03-17T12:08:56.719Z,1.35
2019-03-17T12:11:25.469Z,1.42
2019-03-17T12:13:54.217Z,1.17
2019-03-17T12:16:23.019Z,1.15
2019-03-17T12:18:51.749Z,1.30
2019-03-17T12:21:20.579Z,1.20
2019-03-17T12:23:49.325Z,1.10
2019-03-17T12:26:18.083Z,1.27
2019-03-17T12:28:46.891Z,1.12
2019-03-17T12:31:15.657Z,1.30
2019-03-17T12:33:44.487Z,1.25
2019-03-17T12:36:13.232Z,1.50
2019-03-17T12:38:41.968Z,1.35
2019-03-17T12:41:10.702Z,1.42
2019-03-17T12:43:39.522Z,1.07
2019-03-17T12:46:08.310Z,1.20
2019-03-17T12:48:37.130Z,1.20
2019-03-17T12:51:05.863Z,1.20
2019-03-17T12:53:34.656Z,1.40
2019-03-17T12:56:03.380Z,1.10
2019-03-17T12:58:32.119Z,1.30
2019-03-17T13:01:00.915Z,1.25
2019-03-17T13:03:29.638Z,0.98
2019-03-17T13:05:58.435Z,1.40
2019-03-17T13:08:27.213Z,1.10
2019-03-17T13:10:56.066Z,1.42
2019-03-17T13:13:24.842Z,1.10
2019-03-17T13:15:53.647Z,1.20
2019-03-17T13:18:22.378Z,1.20
2019-03-17T13:20:51.115Z,1.50
2019-03-17T13:23:19.918Z,1.25
2019-03-17T13:25:48.649Z,1.10
2019-03-17T13:28:17.404Z,1.42
2019-03-17T13:30:46.135Z,1.35
2019-03-17T13:33:14.920Z,1.30
2019-03-17T13:35:43.675Z,1.20
2019-03-17T13:38:12.464Z,1.42
2019-03-17T13:40:41.213Z,1.25
2019-03-17T13:43:09.937Z,1.35
2019-03-17T13:45:38.682Z,1.30
2019-03-17T13:48:07.500Z,1.35
2019-03-17T13:50:36.227Z,1.40
2019-03-17T13:53:05.042Z,1.20
2019-03-17T13:55:33.773Z,1.60
2019-03-17T13:58:02.554Z,1.45
2019-03-17T14:00:31.300Z,1.60
2019-03-17T14:03:00.026Z,1.45
2019-03-17T14:05:28.762Z,1.50
2019-03-17T14:07:57.544Z,2.05
2019-03-17T14:10:26.262Z,1.30
2019-03-17T14:12:55.041Z,2.37
2019-03-17T14:15:23.942Z,1.57
2019-03-17T14:17:52.753Z,1.57
2019-03-17T14:20:21.572Z,1.80
2019-03-17T14:22:50.383Z,1.87
2019-03-17T14:25:23.944Z,1.80
2019-03-17T14:27:52.770Z,1.70
2019-03-17T14:30:21.551Z,1.75
2019-03-17T14:32:50.298Z,1.70
2019-03-17T14:35:21.458Z,1.55
2019-03-17T14:37:49.514Z,1.62
2019-03-17T14:40:18.255Z,1.80
2019-03-17T14:42:47.090Z,1.87
2019-03-17T14:45:15.906Z,1.70
2019-03-17T14:47:44.739Z,1.50
2019-03-17T14:50:15.324Z,1.75
2019-03-17T14:52:44.177Z,1.92
2019-03-17T14:55:12.984Z,1.50
2019-03-17T14:57:41.807Z,1.52
2019-03-17T15:00:13.273Z,1.65
2019-03-17T15:02:42.042Z,1.72
2019-03-17T15:05:10.982Z,1.90
2019-03-17T15:07:39.769Z,1.72
2019-03-17T15:10:11.032Z,1.75
2019-03-17T15:12:39.772Z,1.57
2019-03-17T15:15:10.152Z,1.50
2019-03-17T15:17:38.888Z,1.60
2019-03-17T15:20:09.567Z,1.82
2019-03-17T15:22:38.306Z,2.02
2019-03-17T15:25:07.993Z,1.67
2019-03-17T15:27:36.797Z,1.80
2019-03-17T15:30:06.704Z,1.77
2019-03-17T15:32:35.421Z,2.10
2019-03-17T15:35:04.434Z,1.65
2019-03-17T15:37:33.188Z,2.00
2019-03-17T15:40:01.986Z,1.60
2019-03-17T15:42:30.728Z,2.10
2019-03-17T15:44:59.458Z,1.80
2019-03-17T15:47:28.197Z,1.90
2019-03-17T15:49:56.939Z,1.70
2019-03-17T15:52:25.679Z,1.75
2019-03-17T15:54:54.393Z,1.75
2019-03-17T15:57:23.123Z,1.70
2019-03-17T15:59:51.963Z,2.00
2019-03-17T16:02:20.701Z,1.80
2019-03-17T16:04:49.420Z,1.87
2019-03-17T16:07:19.752Z,1.98
2019-03-17T16:09:49.044Z,1.70
2019-03-17T16:12:17.790Z,2.08
2019-03-17T16:14:46.508Z,1.98
2019-03-17T16:17:15.302Z,2.10
2019-03-17T16:19:44.155Z,2.22
2019-03-17T16:22:12.996Z,2.02
2019-03-17T16:24:41.746Z,1.65
2019-03-17T16:27:10.455Z,1.90
2019-03-17T16:29:39.204Z,1.98
2019-03-17T16:32:08.004Z,2.25
2019-03-17T16:34:36.799Z,1.90
2019-03-17T16:37:05.614Z,1.95
2019-03-17T16:39:34.445Z,2.42
2019-03-17T16:42:03.181Z,1.92
2019-03-17T16:44:31.902Z,2.33
2019-03-17T16:47:00.615Z,2.22
2019-03-17T16:49:29.349Z,2.15
2019-03-17T16:51:58.104Z,1.95
2019-03-17T16:54:27.130Z,2.30
2019-03-17T16:56:55.873Z,1.45
2019-03-17T16:59:24.664Z,1.22
2019-03-17T17:01:53.391Z,1.00
2019-03-17T17:04:22.140Z,0.80
2019-03-17T17:06:50.865Z,0.40
2019-03-17T17:09:19.594Z,0.40
2019-03-17T17:11:56.614Z,0.20
2019-03-17T17:14:18.846Z,0.30
2019-03-17T17:16:47.686Z,0.20
2019-03-17T17:19:16.433Z,0.30
2019-03-17T17:21:45.190Z,0.30
2019-03-17T17:24:13.965Z,0.23
2019-03-17T17:26:42.734Z,0.30
2019-03-17T17:29:11.480Z,0.17
2019-03-17T17:31:40.253Z,0.20
2019-03-17T17:34:09.030Z,0.20
2019-03-17T17:36:37.945Z,0.17
2019-03-17T17:39:09.031Z,0.30
2019-03-17T17:41:37.791Z,0.20
2019-03-17T17:44:06.499Z,0.65
2019-03-17T17:46:35.349Z,0.25
2019-03-17T17:49:04.178Z,0.28
2019-03-17T17:51:33.032Z,0.40
2019-03-17T17:54:01.778Z,0.40
2019-03-17T17:56:30.548Z,0.50
2019-03-17T17:58:59.292Z,0.40
2019-03-17T18:01:28.068Z,0.40
2019-03-17T18:03:56.887Z,0.30
2019-03-17T18:06:25.627Z,0.30
2019-03-17T18:08:54.368Z,0.40
2019-03-17T18:11:23.182Z,0.40
2019-03-17T18:13:51.992Z,0.50
2019-03-17T18:16:20.741Z,0.28
2019-03-17T18:18:49.683Z,0.55
2019-03-17T18:21:18.482Z,0.40
2019-03-17T18:23:47.228Z,0.55
2019-03-17T18:26:15.998Z,0.55
2019-03-17T18:28:44.884Z,0.30
2019-03-17T18:31:13.678Z,0.47
2019-03-17T18:33:44.247Z,0.30
2019-03-17T18:36:12.965Z,1.15
2019-03-17T18:38:41.822Z,0.20
2019-03-17T18:41:10.616Z,0.50
2019-03-17T18:43:39.463Z,0.53
2019-03-17T18:46:08.270Z,0.37
2019-03-17T18:48:37.095Z,0.50
2019-03-17T18:51:05.950Z,0.40
2019-03-17T18:53:34.780Z,0.37
2019-03-17T18:56:03.507Z,0.78
2019-03-17T18:58:32.235Z,0.62
2019-03-17T19:01:00.985Z,0.50
2019-03-17T19:03:30.122Z,0.75
2019-03-17T19:05:59.155Z,0.47
2019-03-17T19:08:28.047Z,0.78
2019-03-17T19:10:56.877Z,0.40
2019-03-17T19:13:25.611Z,0.50
2019-03-17T19:15:54.333Z,0.70
2019-03-17T19:18:23.055Z,0.80
2019-03-17T19:20:51.862Z,0.90
2019-03-17T19:23:20.648Z,0.80
2019-03-17T19:25:49.359Z,0.90
2019-03-17T19:28:18.102Z,1.00
2019-03-17T19:30:46.807Z,0.50
2019-03-17T19:33:15.573Z,0.70
2019-03-17T19:35:44.310Z,0.60
2019-03-17T19:38:13.029Z,2.25
2019-03-17T19:40:41.760Z,0.80
2019-03-17T19:43:10.546Z,1.30
2019-03-17T19:45:39.262Z,0.68
2019-03-17T19:48:08.019Z,0.90
2019-03-17T19:50:36.740Z,1.12
2019-03-17T19:53:05.589Z,0.80
2019-03-17T19:55:34.391Z,0.80
2019-03-17T19:58:03.117Z,0.70
2019-03-17T20:00:31.919Z,0.75
2019-03-17T20:03:00.678Z,0.90
2019-03-17T20:05:29.473Z,0.85
2019-03-17T20:07:58.274Z,0.80
2019-03-17T20:10:27.065Z,0.80
2019-03-17T20:12:55.814Z,1.10
2019-03-17T20:15:24.526Z,0.82
2019-03-17T20:17:53.287Z,1.02
2019-03-17T20:20:22.112Z,0.75
2019-03-17T20:22:50.826Z,0.82
2019-03-17T20:25:19.567Z,0.65
2019-03-17T20:27:48.313Z,0.68
2019-03-17T20:30:17.071Z,0.70
2019-03-17T20:32:45.908Z,0.78
2019-03-17T20:35:14.787Z,0.90
2019-03-17T20:37:43.511Z,0.65
2019-03-17T20:40:13.041Z,0.88
2019-03-17T20:42:42.707Z,0.68
2019-03-17T20:45:11.499Z,0.68
2019-03-17T20:47:40.261Z,0.65
2019-03-17T20:50:10.321Z,0.80
2019-03-17T20:52:39.227Z,0.80
2019-03-17T20:55:08.222Z,0.70
2019-03-17T20:57:36.965Z,0.70
2019-03-17T21:00:06.291Z,0.85
2019-03-17T21:02:35.023Z,0.55
2019-03-17T21:05:03.931Z,0.60
2019-03-17T21:07:32.714Z,0.62
2019-03-17T21:10:01.530Z,0.47
2019-03-17T21:12:30.304Z,0.78
2019-03-17T21:14:59.157Z,0.57
2019-03-17T21:17:28.066Z,0.65
2019-03-17T21:19:56.898Z,0.60
2019-03-17T21:22:25.654Z,0.50
2019-03-17T21:24:54.478Z,0.40
2019-03-17T21:27:23.243Z,0.60
2019-03-17T21:29:51.965Z,0.60
2019-03-17T21:32:20.702Z,0.60
2019-03-17T21:34:49.480Z,0.50
2019-03-17T21:37:18.347Z,0.40
2019-03-17T21:39:47.126Z,0.50
2019-03-17T21:42:15.884Z,0.40
2019-03-17T21:44:44.656Z,0.45
2019-03-17T21:47:13.415Z,0.60
2019-03-17T21:49:42.178Z,0.50
2019-03-17T21:52:10.952Z,0.50
2019-03-17T21:54:39.777Z,0.40
2019-03-17T21:57:08.598Z,0.80
2019-03-17T21:59:37.384Z,0.50
2019-03-17T22:02:12.900Z,0.40
2019-03-17T22:04:36.700Z,0.50
2019-03-17T22:07:05.644Z,0.50
2019-03-17T22:09:34.551Z,0.50
2019-03-17T22:12:03.290Z,0.50
2019-03-17T22:14:32.011Z,0.72
2019-03-17T22:17:00.822Z,0.60
2019-03-17T22:19:29.625Z,0.60
2019-03-17T22:21:58.427Z,0.60
2019-03-17T22:24:27.159Z,0.60
2019-03-17T22:26:55.897Z,0.40
2019-03-17T22:29:24.718Z,0.65
2019-03-17T22:31:53.468Z,0.55
2019-03-17T22:34:22.182Z,0.40
2019-03-17T22:36:50.916Z,0.50
2019-03-17T22:39:19.663Z,0.80
2019-03-17T22:41:48.371Z,0.35
2019-03-17T22:44:24.224Z,0.50
2019-03-17T22:46:47.541Z,0.57
2019-03-17T22:49:16.341Z,0.33
2019-03-17T22:51:45.080Z,0.40
2019-03-17T22:54:13.819Z,0.40
2019-03-17T22:56:42.591Z,0.30
2019-03-17T22:59:11.306Z,0.40
2019-03-17T23:01:40.044Z,0.60
2019-03-17T23:04:08.835Z,0.50
2019-03-17T23:06:37.560Z,0.33
2019-03-17T23:09:07.714Z,0.37
2019-03-17T23:11:36.442Z,0.50
2019-03-17T23:14:05.164Z,0.50
2019-03-17T23:16:33.919Z,0.40
2019-03-17T23:19:02.635Z,0.50
2019-03-17T23:21:31.365Z,0.47
2019-03-17T23:24:00.115Z,0.47
2019-03-17T23:26:28.823Z,0.40
2019-03-17T23:28:57.555Z,0.30
2019-03-17T23:31:26.297Z,0.47
2019-03-17T23:33:55.045Z,0.20
2019-03-17T23:36:23.818Z,0.30
2019-03-17T23:38:52.592Z,0.17
2019-03-17T23:41:21.321Z,0.15
2019-03-17T23:43:50.107Z,0.25
2019-03-17T23:46:18.853Z,0.20
2019-03-17T23:48:47.638Z,0.10
2019-03-17T23:51:16.471Z,0.40
2019-03-17T23:53:45.202Z,0.20
2019-03-17T23:56:13.927Z,0.30
2019-03-17T23:58:42.657Z,0.30
